Aérodrome :
LOGIN :

S'inscrire | Disclaimer

   EN    FR    IT 

 










Légende :    VFR   VFR Marginal   IFR   IFR Intensif   IFR Très Intensif
Visi : 
Plafond : 
>= 8 km
>= 3000ft
5 à 8 km
1000 à 3000 ft
1500m à 5 km
500 à 1000 ft
800 à 1500m
200 à 500 ft
< 800m
< 200 ft
Symboles :   Orages  Brouillard  Fortes neiges  Fortes précipitations  Vent > 20 kt
SIGMETs :   Divers  Orages  Givrage  Turbulence  Onde Orograph.  Cendres Volcan.







- Altitude de l'aérodrome : -11 ft
- Code IATA : AMS


EHAM - Amsterdam Schiphol

DERNIER METAR :
  • 251025Z 26014KT 9999 FEW015 BKN017 OVC044 12/07 Q1011 TEMPO SCT017

METARs EXPIRÉS :
  • 250955Z 27014KT 9999 SCT017 11/07 Q1011 NOSIG
  • 250925Z 27014KT 9999 SCT017 11/07 Q1011 NOSIG
  • 250855Z 29011KT 9999 FEW014 11/07 Q1010 NOSIG
  • 250825Z 28013KT 9999 SCT012 SCT043 10/07 Q1010 NOSIG
  • 250755Z 28012KT 9999 FEW008 SCT011 BKN014 10/08 Q1009 TEMPO BKN030
  • 250725Z 27013KT 9999 FEW006 BKN007 BKN009 09/08 Q1009 TEMPO FEW008 BKN025

TAF TAF EHAM
Valide du 25 à 06h jusqu'au 26 à 12h UTC


250438Z 2506/2612 28015G25KT 9999 FEW008 BKN015
BECMG 2506/2509 SCT020
PROB30
TEMPO 2506/2508 BKN007
BECMG 2514/2517 25015KT
PROB40
TEMPO 2516/2602 6000 SHRA SCT020CB
BECMG 2607/2610 26018G28KT
Pas de NOTAMs connus pour ce terrain.



MET'MAP, la Météo Aéronautique d'un coup d'oeil ! - Copyright ORBIFLY Décembre 2007 - Disclaimer

ORBIFLY MET'MAP TEAM :

Programmation & Développement : Alexandra Zaïnal
Conception & Développement : Baudouin d'Aumeries
Co-Programmation & Développement : Marc-Olivier Méhu
Soutien technique & logistique : Manuel Goepfert

Contact : metmap@orbifly.com




SOURCES & CREDITS :

   NOAA